sensor_id;sensor_type;location;lat;lon;timestamp;P1;durP1;ratioP1;P2;durP2;ratioP2
19131;SDS011;9698;51.976;7.570;2024-01-06T00:02:00;7.37;;;6.13;;
19131;SDS011;9698;51.976;7.570;2024-01-06T00:04:28;7.27;;;6.40;;
19131;SDS011;9698;51.976;7.570;2024-01-06T00:06:56;7.37;;;5.87;;
19131;SDS011;9698;51.976;7.570;2024-01-06T00:09:24;6.50;;;5.80;;
19131;SDS011;9698;51.976;7.570;2024-01-06T00:11:52;7.83;;;5.90;;
19131;SDS011;9698;51.976;7.570;2024-01-06T00:14:20;7.20;;;6.40;;
19131;SDS011;9698;51.976;7.570;2024-01-06T00:16:47;8.67;;;6.63;;
19131;SDS011;9698;51.976;7.570;2024-01-06T00:19:16;8.50;;;6.57;;
19131;SDS011;9698;51.976;7.570;2024-01-06T00:21:44;9.03;;;6.73;;
19131;SDS011;9698;51.976;7.570;2024-01-06T00:24:12;8.87;;;7.03;;
19131;SDS011;9698;51.976;7.570;2024-01-06T00:26:49;8.03;;;6.90;;
19131;SDS011;9698;51.976;7.570;2024-01-06T00:29:16;9.90;;;6.80;;
19131;SDS011;9698;51.976;7.570;2024-01-06T00:31:47;8.63;;;7.13;;
19131;SDS011;9698;51.976;7.570;2024-01-06T00:34:27;8.80;;;7.13;;
19131;SDS011;9698;51.976;7.570;2024-01-06T00:36:55;8.50;;;7.33;;
19131;SDS011;9698;51.976;7.570;2024-01-06T00:39:23;8.70;;;7.27;;
19131;SDS011;9698;51.976;7.570;2024-01-06T00:41:51;8.67;;;7.57;;
19131;SDS011;9698;51.976;7.570;2024-01-06T00:44:19;8.53;;;7.33;;
19131;SDS011;9698;51.976;7.570;2024-01-06T00:46:49;9.60;;;7.47;;
19131;SDS011;9698;51.976;7.570;2024-01-06T00:49:17;9.70;;;8.03;;
19131;SDS011;9698;51.976;7.570;2024-01-06T00:51:45;10.27;;;7.77;;
19131;SDS011;9698;51.976;7.570;2024-01-06T00:54:13;8.87;;;7.50;;
19131;SDS011;9698;51.976;7.570;2024-01-06T00:56:49;9.30;;;7.67;;
19131;SDS011;9698;51.976;7.570;2024-01-06T00:59:17;11.00;;;8.47;;
19131;SDS011;9698;51.976;7.570;2024-01-06T01:01:45;8.87;;;7.63;;
19131;SDS011;9698;51.976;7.570;2024-01-06T01:04:13;9.17;;;7.47;;
19131;SDS011;9698;51.976;7.570;2024-01-06T01:06:42;11.80;;;8.87;;
19131;SDS011;9698;51.976;7.570;2024-01-06T01:09:10;10.03;;;8.77;;
19131;SDS011;9698;51.976;7.570;2024-01-06T01:11:40;10.83;;;8.70;;
19131;SDS011;9698;51.976;7.570;2024-01-06T01:14:08;10.43;;;8.10;;
19131;SDS011;9698;51.976;7.570;2024-01-06T01:16:46;8.97;;;7.60;;
19131;SDS011;9698;51.976;7.570;2024-01-06T01:19:14;9.07;;;7.83;;
19131;SDS011;9698;51.976;7.570;2024-01-06T01:21:42;9.53;;;7.43;;
19131;SDS011;9698;51.976;7.570;2024-01-06T01:24:10;8.93;;;7.40;;
19131;SDS011;9698;51.976;7.570;2024-01-06T01:29:14;11.77;;;8.53;;
19131;SDS011;9698;51.976;7.570;2024-01-06T01:31:42;11.83;;;8.80;;
19131;SDS011;9698;51.976;7.570;2024-01-06T01:34:11;11.03;;;8.33;;
19131;SDS011;9698;51.976;7.570;2024-01-06T01:36:40;15.37;;;8.97;;
19131;SDS011;9698;51.976;7.570;2024-01-06T01:39:08;10.97;;;8.23;;
19131;SDS011;9698;51.976;7.570;2024-01-06T01:41:36;11.73;;;8.67;;
19131;SDS011;9698;51.976;7.570;2024-01-06T01:44:04;11.40;;;8.57;;
19131;SDS011;9698;51.976;7.570;2024-01-06T01:46:32;12.07;;;8.43;;
19131;SDS011;9698;51.976;7.570;2024-01-06T01:49:00;11.50;;;8.17;;
19131;SDS011;9698;51.976;7.570;2024-01-06T01:51:30;11.77;;;8.53;;
19131;SDS011;9698;51.976;7.570;2024-01-06T01:54:00;13.53;;;9.53;;
19131;SDS011;9698;51.976;7.570;2024-01-06T01:56:30;13.33;;;8.57;;
19131;SDS011;9698;51.976;7.570;2024-01-06T01:59:00;11.97;;;8.43;;
19131;SDS011;9698;51.976;7.570;2024-01-06T02:01:31;12.40;;;9.33;;
19131;SDS011;9698;51.976;7.570;2024-01-06T02:04:00;11.40;;;8.70;;
19131;SDS011;9698;51.976;7.570;2024-01-06T02:06:28;13.93;;;9.40;;
19131;SDS011;9698;51.976;7.570;2024-01-06T02:08:56;13.93;;;9.83;;
19131;SDS011;9698;51.976;7.570;2024-01-06T02:11:24;13.90;;;9.07;;
19131;SDS011;9698;51.976;7.570;2024-01-06T02:13:52;13.00;;;8.87;;
19131;SDS011;9698;51.976;7.570;2024-01-06T02:16:28;12.10;;;9.23;;
19131;SDS011;9698;51.976;7.570;2024-01-06T02:18:56;15.00;;;10.70;;
19131;SDS011;9698;51.976;7.570;2024-01-06T02:21:24;12.83;;;9.77;;
19131;SDS011;9698;51.976;7.570;2024-01-06T02:23:58;13.63;;;9.87;;
19131;SDS011;9698;51.976;7.570;2024-01-06T02:26:26;14.13;;;9.90;;
19131;SDS011;9698;51.976;7.570;2024-01-06T02:28:53;15.30;;;10.43;;
19131;SDS011;9698;51.976;7.570;2024-01-06T02:31:21;15.47;;;10.00;;
19131;SDS011;9698;51.976;7.570;2024-01-06T02:33:49;14.83;;;10.87;;
19131;SDS011;9698;51.976;7.570;2024-01-06T02:36:17;15.23;;;10.80;;
19131;SDS011;9698;51.976;7.570;2024-01-06T02:38:45;13.97;;;10.17;;
19131;SDS011;9698;51.976;7.570;2024-01-06T02:41:13;14.20;;;9.23;;
19131;SDS011;9698;51.976;7.570;2024-01-06T02:43:41;13.00;;;9.50;;
19131;SDS011;9698;51.976;7.570;2024-01-06T02:46:08;12.30;;;8.83;;
19131;SDS011;9698;51.976;7.570;2024-01-06T02:48:36;12.53;;;8.63;;
19131;SDS011;9698;51.976;7.570;2024-01-06T02:51:04;12.03;;;8.13;;
19131;SDS011;9698;51.976;7.570;2024-01-06T02:53:32;10.97;;;7.10;;
19131;SDS011;9698;51.976;7.570;2024-01-06T02:56:00;9.90;;;6.80;;
19131;SDS011;9698;51.976;7.570;2024-01-06T02:58:27;10.57;;;6.93;;
19131;SDS011;9698;51.976;7.570;2024-01-06T03:00:55;10.83;;;7.37;;
19131;SDS011;9698;51.976;7.570;2024-01-06T03:03:23;9.70;;;6.60;;
19131;SDS011;9698;51.976;7.570;2024-01-06T03:05:51;8.93;;;6.63;;
19131;SDS011;9698;51.976;7.570;2024-01-06T03:08:19;9.10;;;7.20;;
19131;SDS011;9698;51.976;7.570;2024-01-06T03:10:46;10.50;;;6.63;;
19131;SDS011;9698;51.976;7.570;2024-01-06T03:13:14;7.67;;;6.10;;
19131;SDS011;9698;51.976;7.570;2024-01-06T03:15:42;8.80;;;6.13;;
19131;SDS011;9698;51.976;7.570;2024-01-06T03:18:10;8.67;;;6.80;;
19131;SDS011;9698;51.976;7.570;2024-01-06T03:20:38;9.63;;;6.53;;
19131;SDS011;9698;51.976;7.570;2024-01-06T03:23:06;7.53;;;5.90;;
19131;SDS011;9698;51.976;7.570;2024-01-06T03:25:33;8.50;;;6.17;;
19131;SDS011;9698;51.976;7.570;2024-01-06T03:28:01;8.97;;;6.77;;
19131;SDS011;9698;51.976;7.570;2024-01-06T03:30:29;9.73;;;7.43;;
19131;SDS011;9698;51.976;7.570;2024-01-06T03:32:57;10.00;;;7.23;;
19131;SDS011;9698;51.976;7.570;2024-01-06T03:35:25;7.57;;;6.40;;
19131;SDS011;9698;51.976;7.570;2024-01-06T03:37:53;10.43;;;6.83;;
19131;SDS011;9698;51.976;7.570;2024-01-06T03:40:21;9.37;;;7.30;;
19131;SDS011;9698;51.976;7.570;2024-01-06T03:42:48;11.50;;;8.00;;
19131;SDS011;9698;51.976;7.570;2024-01-06T03:45:16;8.97;;;7.57;;
19131;SDS011;9698;51.976;7.570;2024-01-06T03:47:44;10.33;;;8.07;;
19131;SDS011;9698;51.976;7.570;2024-01-06T03:50:12;10.20;;;8.13;;
19131;SDS011;9698;51.976;7.570;2024-01-06T03:52:40;12.37;;;9.00;;
19131;SDS011;9698;51.976;7.570;2024-01-06T03:55:08;12.70;;;8.93;;
19131;SDS011;9698;51.976;7.570;2024-01-06T03:57:36;9.73;;;8.50;;
19131;SDS011;9698;51.976;7.570;2024-01-06T04:00:05;11.77;;;8.73;;
19131;SDS011;9698;51.976;7.570;2024-01-06T04:02:35;11.47;;;8.80;;
19131;SDS011;9698;51.976;7.570;2024-01-06T04:05:03;12.70;;;9.50;;
19131;SDS011;9698;51.976;7.570;2024-01-06T04:07:31;10.23;;;8.23;;
19131;SDS011;9698;51.976;7.570;2024-01-06T04:09:59;10.23;;;8.10;;
19131;SDS011;9698;51.976;7.570;2024-01-06T04:12:27;11.03;;;7.67;;
19131;SDS011;9698;51.976;7.570;2024-01-06T04:14:55;9.60;;;6.80;;
19131;SDS011;9698;51.976;7.570;2024-01-06T04:17:22;8.97;;;6.90;;
19131;SDS011;9698;51.976;7.570;2024-01-06T04:19:52;9.37;;;7.00;;
19131;SDS011;9698;51.976;7.570;2024-01-06T04:22:20;7.27;;;5.93;;
19131;SDS011;9698;51.976;7.570;2024-01-06T04:24:48;6.90;;;5.53;;
19131;SDS011;9698;51.976;7.570;2024-01-06T04:27:16;6.47;;;5.43;;
19131;SDS011;9698;51.976;7.570;2024-01-06T04:29:44;7.17;;;5.80;;
19131;SDS011;9698;51.976;7.570;2024-01-06T04:32:12;5.70;;;4.70;;
19131;SDS011;9698;51.976;7.570;2024-01-06T04:34:40;4.87;;;4.10;;
19131;SDS011;9698;51.976;7.570;2024-01-06T04:37:08;5.10;;;3.73;;
19131;SDS011;9698;51.976;7.570;2024-01-06T04:39:36;5.47;;;4.53;;
19131;SDS011;9698;51.976;7.570;2024-01-06T04:42:05;6.03;;;4.83;;
19131;SDS011;9698;51.976;7.570;2024-01-06T04:44:33;6.17;;;4.87;;
19131;SDS011;9698;51.976;7.570;2024-01-06T04:47:00;6.43;;;5.13;;
19131;SDS011;9698;51.976;7.570;2024-01-06T04:49:28;6.97;;;5.57;;
19131;SDS011;9698;51.976;7.570;2024-01-06T04:51:56;6.70;;;5.20;;
19131;SDS011;9698;51.976;7.570;2024-01-06T04:54:24;6.53;;;5.20;;
19131;SDS011;9698;51.976;7.570;2024-01-06T04:56:51;6.30;;;5.20;;
19131;SDS011;9698;51.976;7.570;2024-01-06T04:59:20;6.80;;;5.17;;
19131;SDS011;9698;51.976;7.570;2024-01-06T05:01:47;7.27;;;5.43;;
19131;SDS011;9698;51.976;7.570;2024-01-06T05:04:16;7.03;;;5.10;;
19131;SDS011;9698;51.976;7.570;2024-01-06T05:06:43;6.70;;;5.37;;
19131;SDS011;9698;51.976;7.570;2024-01-06T05:09:11;7.40;;;5.60;;
19131;SDS011;9698;51.976;7.570;2024-01-06T05:11:39;9.77;;;6.03;;
19131;SDS011;9698;51.976;7.570;2024-01-06T05:14:07;9.30;;;5.90;;
19131;SDS011;9698;51.976;7.570;2024-01-06T05:16:34;8.60;;;6.23;;
19131;SDS011;9698;51.976;7.570;2024-01-06T05:19:02;8.57;;;6.30;;
19131;SDS011;9698;51.976;7.570;2024-01-06T05:21:30;9.40;;;6.47;;
19131;SDS011;9698;51.976;7.570;2024-01-06T05:23:58;11.03;;;6.93;;
19131;SDS011;9698;51.976;7.570;2024-01-06T05:26:26;8.73;;;6.40;;
19131;SDS011;9698;51.976;7.570;2024-01-06T05:28:54;9.27;;;6.40;;
19131;SDS011;9698;51.976;7.570;2024-01-06T05:31:21;9.83;;;7.20;;
19131;SDS011;9698;51.976;7.570;2024-01-06T05:33:49;10.57;;;7.03;;
19131;SDS011;9698;51.976;7.570;2024-01-06T05:36:19;10.77;;;7.10;;
19131;SDS011;9698;51.976;7.570;2024-01-06T05:38:46;10.30;;;7.17;;
19131;SDS011;9698;51.976;7.570;2024-01-06T05:41:23;9.20;;;6.83;;
19131;SDS011;9698;51.976;7.570;2024-01-06T05:43:51;10.47;;;6.97;;
19131;SDS011;9698;51.976;7.570;2024-01-06T05:46:21;9.30;;;7.23;;
19131;SDS011;9698;51.976;7.570;2024-01-06T05:48:49;8.57;;;6.07;;
19131;SDS011;9698;51.976;7.570;2024-01-06T05:51:17;8.80;;;6.27;;
19131;SDS011;9698;51.976;7.570;2024-01-06T05:53:45;10.77;;;6.67;;
19131;SDS011;9698;51.976;7.570;2024-01-06T05:56:18;9.20;;;7.20;;
19131;SDS011;9698;51.976;7.570;2024-01-06T05:58:50;9.63;;;6.40;;
19131;SDS011;9698;51.976;7.570;2024-01-06T06:01:19;10.97;;;7.03;;
19131;SDS011;9698;51.976;7.570;2024-01-06T06:03:49;9.53;;;6.70;;
19131;SDS011;9698;51.976;7.570;2024-01-06T06:06:18;9.63;;;6.97;;
19131;SDS011;9698;51.976;7.570;2024-01-06T06:08:46;9.80;;;6.10;;
19131;SDS011;9698;51.976;7.570;2024-01-06T06:11:14;9.37;;;6.57;;
19131;SDS011;9698;51.976;7.570;2024-01-06T06:13:42;11.00;;;7.40;;
19131;SDS011;9698;51.976;7.570;2024-01-06T06:16:10;10.83;;;6.77;;
19131;SDS011;9698;51.976;7.570;2024-01-06T06:18:38;9.53;;;6.90;;
19131;SDS011;9698;51.976;7.570;2024-01-06T06:21:07;10.67;;;7.17;;
19131;SDS011;9698;51.976;7.570;2024-01-06T06:23:35;11.07;;;6.60;;
19131;SDS011;9698;51.976;7.570;2024-01-06T06:26:04;10.53;;;6.93;;
19131;SDS011;9698;51.976;7.570;2024-01-06T06:28:32;9.40;;;6.27;;
19131;SDS011;9698;51.976;7.570;2024-01-06T06:31:01;9.53;;;6.63;;
19131;SDS011;9698;51.976;7.570;2024-01-06T06:33:29;10.57;;;7.60;;
19131;SDS011;9698;51.976;7.570;2024-01-06T06:35:59;10.00;;;7.17;;
19131;SDS011;9698;51.976;7.570;2024-01-06T06:38:27;8.63;;;7.13;;
19131;SDS011;9698;51.976;7.570;2024-01-06T06:40:55;9.07;;;7.07;;
19131;SDS011;9698;51.976;7.570;2024-01-06T06:43:23;9.73;;;7.20;;
19131;SDS011;9698;51.976;7.570;2024-01-06T06:45:51;12.27;;;9.03;;
19131;SDS011;9698;51.976;7.570;2024-01-06T06:48:18;10.00;;;7.73;;
19131;SDS011;9698;51.976;7.570;2024-01-06T06:50:46;12.33;;;7.77;;
19131;SDS011;9698;51.976;7.570;2024-01-06T06:53:14;9.67;;;7.33;;
19131;SDS011;9698;51.976;7.570;2024-01-06T06:55:42;9.70;;;8.00;;
19131;SDS011;9698;51.976;7.570;2024-01-06T06:58:10;11.03;;;7.80;;
19131;SDS011;9698;51.976;7.570;2024-01-06T07:00:38;10.47;;;8.27;;
19131;SDS011;9698;51.976;7.570;2024-01-06T07:03:06;10.53;;;8.10;;
19131;SDS011;9698;51.976;7.570;2024-01-06T07:05:34;10.93;;;8.23;;
19131;SDS011;9698;51.976;7.570;2024-01-06T07:08:02;8.43;;;7.10;;
19131;SDS011;9698;51.976;7.570;2024-01-06T07:10:30;9.33;;;7.13;;
19131;SDS011;9698;51.976;7.570;2024-01-06T07:12:58;9.13;;;7.77;;
19131;SDS011;9698;51.976;7.570;2024-01-06T07:15:26;10.53;;;7.17;;
19131;SDS011;9698;51.976;7.570;2024-01-06T07:17:53;11.47;;;7.80;;
19131;SDS011;9698;51.976;7.570;2024-01-06T07:20:21;10.70;;;7.60;;
19131;SDS011;9698;51.976;7.570;2024-01-06T07:22:49;9.77;;;7.87;;
19131;SDS011;9698;51.976;7.570;2024-01-06T07:25:17;10.90;;;7.87;;
19131;SDS011;9698;51.976;7.570;2024-01-06T07:27:45;11.30;;;8.60;;
19131;SDS011;9698;51.976;7.570;2024-01-06T07:30:13;10.73;;;7.90;;
19131;SDS011;9698;51.976;7.570;2024-01-06T07:32:42;11.60;;;8.03;;
19131;SDS011;9698;51.976;7.570;2024-01-06T07:35:10;9.93;;;7.40;;
19131;SDS011;9698;51.976;7.570;2024-01-06T07:37:38;10.63;;;7.80;;
19131;SDS011;9698;51.976;7.570;2024-01-06T07:40:07;11.17;;;7.93;;
19131;SDS011;9698;51.976;7.570;2024-01-06T07:42:35;10.97;;;8.00;;
19131;SDS011;9698;51.976;7.570;2024-01-06T07:45:05;11.63;;;7.97;;
19131;SDS011;9698;51.976;7.570;2024-01-06T07:47:34;11.53;;;8.03;;
19131;SDS011;9698;51.976;7.570;2024-01-06T07:50:02;11.40;;;8.07;;
19131;SDS011;9698;51.976;7.570;2024-01-06T07:52:31;13.10;;;7.83;;
19131;SDS011;9698;51.976;7.570;2024-01-06T07:54:59;10.87;;;8.23;;
19131;SDS011;9698;51.976;7.570;2024-01-06T07:57:27;11.23;;;8.27;;
19131;SDS011;9698;51.976;7.570;2024-01-06T07:59:55;11.00;;;8.00;;
19131;SDS011;9698;51.976;7.570;2024-01-06T08:02:22;12.37;;;8.17;;
19131;SDS011;9698;51.976;7.570;2024-01-06T08:04:50;12.67;;;8.63;;
19131;SDS011;9698;51.976;7.570;2024-01-06T08:07:18;11.07;;;7.77;;
19131;SDS011;9698;51.976;7.570;2024-01-06T08:09:46;10.27;;;7.63;;
19131;SDS011;9698;51.976;7.570;2024-01-06T08:12:15;14.77;;;8.20;;
19131;SDS011;9698;51.976;7.570;2024-01-06T08:14:43;11.47;;;8.07;;
19131;SDS011;9698;51.976;7.570;2024-01-06T08:17:10;10.23;;;7.97;;
19131;SDS011;9698;51.976;7.570;2024-01-06T08:19:40;10.80;;;8.00;;
19131;SDS011;9698;51.976;7.570;2024-01-06T08:22:08;11.33;;;8.10;;
19131;SDS011;9698;51.976;7.570;2024-01-06T08:24:36;12.50;;;8.13;;
19131;SDS011;9698;51.976;7.570;2024-01-06T08:27:04;12.40;;;8.90;;
19131;SDS011;9698;51.976;7.570;2024-01-06T08:29:32;11.93;;;8.53;;
19131;SDS011;9698;51.976;7.570;2024-01-06T08:32:00;19.57;;;14.07;;
19131;SDS011;9698;51.976;7.570;2024-01-06T08:34:29;11.33;;;9.20;;
19131;SDS011;9698;51.976;7.570;2024-01-06T08:36:59;10.50;;;8.33;;
19131;SDS011;9698;51.976;7.570;2024-01-06T08:39:27;11.67;;;8.67;;
19131;SDS011;9698;51.976;7.570;2024-01-06T08:41:55;13.00;;;9.30;;
19131;SDS011;9698;51.976;7.570;2024-01-06T08:44:27;14.23;;;10.40;;
19131;SDS011;9698;51.976;7.570;2024-01-06T08:46:55;13.77;;;10.40;;
19131;SDS011;9698;51.976;7.570;2024-01-06T08:49:23;13.50;;;10.17;;
19131;SDS011;9698;51.976;7.570;2024-01-06T08:51:51;13.83;;;10.70;;
19131;SDS011;9698;51.976;7.570;2024-01-06T08:54:19;14.10;;;11.00;;
19131;SDS011;9698;51.976;7.570;2024-01-06T08:56:47;15.20;;;11.63;;
19131;SDS011;9698;51.976;7.570;2024-01-06T08:59:14;15.07;;;11.23;;
19131;SDS011;9698;51.976;7.570;2024-01-06T09:01:42;13.87;;;10.50;;
19131;SDS011;9698;51.976;7.570;2024-01-06T09:04:13;14.43;;;10.27;;
19131;SDS011;9698;51.976;7.570;2024-01-06T09:06:41;11.60;;;8.87;;
19131;SDS011;9698;51.976;7.570;2024-01-06T09:09:09;11.20;;;7.70;;
19131;SDS011;9698;51.976;7.570;2024-01-06T09:11:37;10.53;;;7.63;;
19131;SDS011;9698;51.976;7.570;2024-01-06T09:14:05;11.17;;;7.70;;
19131;SDS011;9698;51.976;7.570;2024-01-06T09:16:32;9.13;;;6.73;;
19131;SDS011;9698;51.976;7.570;2024-01-06T09:19:00;11.37;;;7.37;;
19131;SDS011;9698;51.976;7.570;2024-01-06T09:21:28;8.13;;;6.50;;
19131;SDS011;9698;51.976;7.570;2024-01-06T09:23:56;9.43;;;6.53;;
19131;SDS011;9698;51.976;7.570;2024-01-06T09:26:32;7.47;;;5.83;;
19131;SDS011;9698;51.976;7.570;2024-01-06T09:29:00;10.23;;;6.20;;
19131;SDS011;9698;51.976;7.570;2024-01-06T09:31:29;7.63;;;5.50;;
19131;SDS011;9698;51.976;7.570;2024-01-06T09:33:59;7.10;;;5.87;;
19131;SDS011;9698;51.976;7.570;2024-01-06T09:36:29;8.60;;;6.70;;
19131;SDS011;9698;51.976;7.570;2024-01-06T09:38:57;9.50;;;7.60;;
19131;SDS011;9698;51.976;7.570;2024-01-06T09:41:25;8.80;;;6.97;;
19131;SDS011;9698;51.976;7.570;2024-01-06T09:43:53;10.17;;;7.40;;
19131;SDS011;9698;51.976;7.570;2024-01-06T09:46:23;9.27;;;7.30;;
19131;SDS011;9698;51.976;7.570;2024-01-06T09:51:28;9.43;;;7.50;;
19131;SDS011;9698;51.976;7.570;2024-01-06T09:53:57;9.57;;;7.43;;
19131;SDS011;9698;51.976;7.570;2024-01-06T09:56:26;11.10;;;8.53;;
19131;SDS011;9698;51.976;7.570;2024-01-06T09:58:55;10.53;;;8.17;;
19131;SDS011;9698;51.976;7.570;2024-01-06T10:01:23;9.87;;;7.90;;
19131;SDS011;9698;51.976;7.570;2024-01-06T10:03:51;10.27;;;8.07;;
19131;SDS011;9698;51.976;7.570;2024-01-06T10:06:19;10.57;;;7.23;;
19131;SDS011;9698;51.976;7.570;2024-01-06T10:08:48;11.70;;;8.10;;
19131;SDS011;9698;51.976;7.570;2024-01-06T10:11:17;12.70;;;9.67;;
19131;SDS011;9698;51.976;7.570;2024-01-06T10:13:48;31.77;;;19.87;;
19131;SDS011;9698;51.976;7.570;2024-01-06T10:16:17;13.27;;;9.87;;
19131;SDS011;9698;51.976;7.570;2024-01-06T10:18:45;15.10;;;10.87;;
19131;SDS011;9698;51.976;7.570;2024-01-06T10:21:18;11.10;;;8.30;;
19131;SDS011;9698;51.976;7.570;2024-01-06T10:23:48;11.03;;;8.53;;
19131;SDS011;9698;51.976;7.570;2024-01-06T10:26:17;10.83;;;8.07;;
19131;SDS011;9698;51.976;7.570;2024-01-06T10:28:45;12.93;;;8.10;;
19131;SDS011;9698;51.976;7.570;2024-01-06T10:31:14;11.60;;;8.17;;
19131;SDS011;9698;51.976;7.570;2024-01-06T10:33:42;10.70;;;8.03;;
19131;SDS011;9698;51.976;7.570;2024-01-06T10:36:10;9.80;;;7.43;;
19131;SDS011;9698;51.976;7.570;2024-01-06T10:38:40;9.27;;;6.83;;
19131;SDS011;9698;51.976;7.570;2024-01-06T10:41:08;9.17;;;6.83;;
19131;SDS011;9698;51.976;7.570;2024-01-06T10:43:38;9.80;;;7.10;;
19131;SDS011;9698;51.976;7.570;2024-01-06T10:46:09;8.20;;;6.13;;
19131;SDS011;9698;51.976;7.570;2024-01-06T10:48:38;9.63;;;6.83;;
19131;SDS011;9698;51.976;7.570;2024-01-06T10:51:09;8.17;;;6.20;;
19131;SDS011;9698;51.976;7.570;2024-01-06T10:53:38;8.73;;;6.43;;
19131;SDS011;9698;51.976;7.570;2024-01-06T10:56:10;7.27;;;5.97;;
19131;SDS011;9698;51.976;7.570;2024-01-06T10:58:38;8.53;;;6.37;;
19131;SDS011;9698;51.976;7.570;2024-01-06T11:01:13;9.63;;;6.77;;
19131;SDS011;9698;51.976;7.570;2024-01-06T11:03:46;9.03;;;6.50;;
19131;SDS011;9698;51.976;7.570;2024-01-06T11:06:15;9.77;;;7.33;;
19131;SDS011;9698;51.976;7.570;2024-01-06T11:08:48;8.87;;;6.57;;
19131;SDS011;9698;51.976;7.570;2024-01-06T11:11:19;7.83;;;6.40;;
19131;SDS011;9698;51.976;7.570;2024-01-06T11:13:49;8.07;;;6.13;;
19131;SDS011;9698;51.976;7.570;2024-01-06T11:16:33;7.23;;;5.93;;
19131;SDS011;9698;51.976;7.570;2024-01-06T11:19:01;6.47;;;5.70;;
19131;SDS011;9698;51.976;7.570;2024-01-06T11:21:39;7.80;;;5.40;;
19131;SDS011;9698;51.976;7.570;2024-01-06T11:24:12;7.17;;;5.37;;
19131;SDS011;9698;51.976;7.570;2024-01-06T11:26:43;7.07;;;5.53;;
19131;SDS011;9698;51.976;7.570;2024-01-06T11:29:11;6.60;;;5.47;;
19131;SDS011;9698;51.976;7.570;2024-01-06T11:31:39;5.90;;;5.30;;
19131;SDS011;9698;51.976;7.570;2024-01-06T11:34:14;7.00;;;6.13;;
19131;SDS011;9698;51.976;7.570;2024-01-06T11:36:44;7.27;;;5.83;;
19131;SDS011;9698;51.976;7.570;2024-01-06T11:39:35;8.00;;;5.93;;
19131;SDS011;9698;51.976;7.570;2024-01-06T11:42:04;7.50;;;6.07;;
19131;SDS011;9698;51.976;7.570;2024-01-06T11:44:37;8.00;;;5.77;;
19131;SDS011;9698;51.976;7.570;2024-01-06T11:47:05;5.57;;;4.10;;
19131;SDS011;9698;51.976;7.570;2024-01-06T11:49:33;8.27;;;6.67;;
19131;SDS011;9698;51.976;7.570;2024-01-06T11:52:02;10.03;;;7.57;;
19131;SDS011;9698;51.976;7.570;2024-01-06T11:54:31;12.67;;;8.37;;
19131;SDS011;9698;51.976;7.570;2024-01-06T11:56:59;11.80;;;8.40;;
19131;SDS011;9698;51.976;7.570;2024-01-06T11:59:27;8.00;;;6.50;;
19131;SDS011;9698;51.976;7.570;2024-01-06T12:01:55;7.63;;;6.07;;
19131;SDS011;9698;51.976;7.570;2024-01-06T12:04:23;7.37;;;6.13;;
19131;SDS011;9698;51.976;7.570;2024-01-06T12:06:53;6.80;;;5.97;;
19131;SDS011;9698;51.976;7.570;2024-01-06T12:09:31;7.80;;;5.73;;
19131;SDS011;9698;51.976;7.570;2024-01-06T12:14:36;6.77;;;5.77;;
19131;SDS011;9698;51.976;7.570;2024-01-06T12:19:40;6.20;;;5.43;;
19131;SDS011;9698;51.976;7.570;2024-01-06T12:22:11;8.10;;;6.10;;
19131;SDS011;9698;51.976;7.570;2024-01-06T12:24:39;7.50;;;6.17;;
19131;SDS011;9698;51.976;7.570;2024-01-06T12:27:07;6.77;;;5.90;;
19131;SDS011;9698;51.976;7.570;2024-01-06T12:29:37;7.03;;;6.17;;
19131;SDS011;9698;51.976;7.570;2024-01-06T12:32:06;12.40;;;6.43;;
19131;SDS011;9698;51.976;7.570;2024-01-06T12:34:35;8.27;;;6.20;;
19131;SDS011;9698;51.976;7.570;2024-01-06T12:37:03;7.80;;;6.33;;
19131;SDS011;9698;51.976;7.570;2024-01-06T12:39:34;8.07;;;6.60;;
19131;SDS011;9698;51.976;7.570;2024-01-06T12:42:02;11.67;;;5.70;;
19131;SDS011;9698;51.976;7.570;2024-01-06T12:44:31;12.50;;;6.93;;
19131;SDS011;9698;51.976;7.570;2024-01-06T12:47:02;8.60;;;6.07;;
19131;SDS011;9698;51.976;7.570;2024-01-06T12:49:30;6.90;;;6.07;;
19131;SDS011;9698;51.976;7.570;2024-01-06T12:52:00;17.43;;;11.57;;
19131;SDS011;9698;51.976;7.570;2024-01-06T12:54:28;9.23;;;6.67;;
19131;SDS011;9698;51.976;7.570;2024-01-06T12:56:55;14.53;;;7.20;;
19131;SDS011;9698;51.976;7.570;2024-01-06T12:59:23;8.57;;;6.53;;
19131;SDS011;9698;51.976;7.570;2024-01-06T13:01:51;9.20;;;6.73;;
19131;SDS011;9698;51.976;7.570;2024-01-06T13:04:19;9.80;;;6.27;;
19131;SDS011;9698;51.976;7.570;2024-01-06T13:06:47;10.57;;;6.60;;
19131;SDS011;9698;51.976;7.570;2024-01-06T13:09:15;9.37;;;7.20;;
19131;SDS011;9698;51.976;7.570;2024-01-06T13:11:43;10.63;;;6.47;;
19131;SDS011;9698;51.976;7.570;2024-01-06T13:14:13;7.77;;;6.47;;
19131;SDS011;9698;51.976;7.570;2024-01-06T13:16:42;7.93;;;6.40;;
19131;SDS011;9698;51.976;7.570;2024-01-06T13:19:10;7.87;;;6.20;;
19131;SDS011;9698;51.976;7.570;2024-01-06T13:21:38;6.73;;;5.40;;
19131;SDS011;9698;51.976;7.570;2024-01-06T13:24:06;14.13;;;8.13;;
19131;SDS011;9698;51.976;7.570;2024-01-06T13:26:35;9.47;;;5.93;;
19131;SDS011;9698;51.976;7.570;2024-01-06T13:29:11;8.83;;;5.13;;
19131;SDS011;9698;51.976;7.570;2024-01-06T13:31:39;5.67;;;4.60;;
19131;SDS011;9698;51.976;7.570;2024-01-06T13:34:08;7.50;;;4.93;;
19131;SDS011;9698;51.976;7.570;2024-01-06T13:36:35;9.40;;;5.57;;
19131;SDS011;9698;51.976;7.570;2024-01-06T13:39:06;7.13;;;4.93;;
19131;SDS011;9698;51.976;7.570;2024-01-06T13:41:44;6.23;;;4.97;;
19131;SDS011;9698;51.976;7.570;2024-01-06T13:44:12;6.80;;;4.90;;
19131;SDS011;9698;51.976;7.570;2024-01-06T13:46:40;6.40;;;5.20;;
19131;SDS011;9698;51.976;7.570;2024-01-06T13:49:11;6.53;;;5.40;;
19131;SDS011;9698;51.976;7.570;2024-01-06T13:51:39;5.77;;;5.17;;
19131;SDS011;9698;51.976;7.570;2024-01-06T13:54:07;6.13;;;4.97;;
19131;SDS011;9698;51.976;7.570;2024-01-06T13:56:35;7.73;;;5.17;;
19131;SDS011;9698;51.976;7.570;2024-01-06T13:59:04;15.97;;;11.97;;
19131;SDS011;9698;51.976;7.570;2024-01-06T14:01:31;7.37;;;5.43;;
19131;SDS011;9698;51.976;7.570;2024-01-06T14:03:59;6.47;;;5.80;;
19131;SDS011;9698;51.976;7.570;2024-01-06T14:06:30;7.13;;;5.50;;
19131;SDS011;9698;51.976;7.570;2024-01-06T14:09:00;6.80;;;5.30;;
19131;SDS011;9698;51.976;7.570;2024-01-06T14:11:28;7.50;;;6.03;;
19131;SDS011;9698;51.976;7.570;2024-01-06T14:13:57;6.50;;;5.57;;
19131;SDS011;9698;51.976;7.570;2024-01-06T14:16:25;8.67;;;6.27;;
19131;SDS011;9698;51.976;7.570;2024-01-06T14:18:53;7.20;;;5.63;;
19131;SDS011;9698;51.976;7.570;2024-01-06T14:21:21;8.03;;;6.20;;
19131;SDS011;9698;51.976;7.570;2024-01-06T14:23:50;8.20;;;6.87;;
19131;SDS011;9698;51.976;7.570;2024-01-06T14:26:17;8.37;;;6.57;;
19131;SDS011;9698;51.976;7.570;2024-01-06T14:28:46;9.80;;;7.23;;
19131;SDS011;9698;51.976;7.570;2024-01-06T14:31:14;10.13;;;7.50;;
19131;SDS011;9698;51.976;7.570;2024-01-06T14:33:42;11.07;;;8.20;;
19131;SDS011;9698;51.976;7.570;2024-01-06T14:36:11;9.40;;;7.07;;
19131;SDS011;9698;51.976;7.570;2024-01-06T14:38:39;10.13;;;7.50;;
19131;SDS011;9698;51.976;7.570;2024-01-06T14:41:07;9.67;;;7.63;;
19131;SDS011;9698;51.976;7.570;2024-01-06T14:43:35;10.30;;;7.70;;
19131;SDS011;9698;51.976;7.570;2024-01-06T14:46:03;10.43;;;8.10;;
19131;SDS011;9698;51.976;7.570;2024-01-06T14:48:32;10.30;;;8.40;;
19131;SDS011;9698;51.976;7.570;2024-01-06T14:51:00;11.37;;;8.70;;
19131;SDS011;9698;51.976;7.570;2024-01-06T14:53:30;11.60;;;8.93;;
19131;SDS011;9698;51.976;7.570;2024-01-06T14:55:58;12.17;;;9.17;;
19131;SDS011;9698;51.976;7.570;2024-01-06T14:58:26;12.47;;;9.30;;
19131;SDS011;9698;51.976;7.570;2024-01-06T15:00:55;15.20;;;9.63;;
19131;SDS011;9698;51.976;7.570;2024-01-06T15:03:23;12.03;;;9.17;;
19131;SDS011;9698;51.976;7.570;2024-01-06T15:05:51;14.33;;;9.90;;
19131;SDS011;9698;51.976;7.570;2024-01-06T15:08:19;13.00;;;9.37;;
19131;SDS011;9698;51.976;7.570;2024-01-06T15:10:47;15.37;;;10.00;;
19131;SDS011;9698;51.976;7.570;2024-01-06T15:13:15;15.47;;;10.47;;